Tuxford, United Kingdom
Current Conditions -  °F | °C
As of 10:50 PM on Thursday 18 Dec 2014 (Local Time) from EGXP Reporting Station
Broken Clouds Broken Clouds  
Wind Chill: 54°   Ceiling: 2000
Heat Index: 54°   Visibility: 6mi
Dew Point: 52°   Wind: 23mph
Humidity: 94%   Direction: 240°WSW
Pressure: 29.59"   Gusts: NA
Location:  53.23°N, 0.89°W
Report Text: EGXP 182250Z AUTO 24020KT 9999 // BKN020/// SCT026/// 12/11 Q1002
Loading
Personal Weather Stations






























Interactive Weather Map New forecast layout! Learn more

10-Day Weather Forecast

Advertisements
Track Severe Weather on mobile